Terminal Aerodrome Forecast
Issued by NWS Mt. Holly, NJ

Home | Current Version | Previous Version | Text Only | Print | Product List | Glossary On
Versions: 1 2 3 4 5 6 7 8 9 10 11 12 13 14 15 16 17 18 19
300
FTUS41 KPHI 141720
TAFTTN
TAF
KTTN 141720Z 1418/1518 35010KT P6SM FEW050
     FM142200 32005KT P6SM FEW250
     FM150300 VRB02KT P6SM BKN250
     FM151000 06004KT P6SM OVC100
      TEMPO 1516/1518 -SN OVC050=

USA.gov is the U.S. government's official web portal to all federal, state and local government web resources and services.